Time;durP1;ratioP1;P1;durP2;ratioP2;P2;SDS_P1;SDS_P2;PMS_P1;PMS_P2;Temp;Humidity;BMP_temperature;BMP_pressure;BME280_temperature;BME280_humidity;BME280_pressure;Samples;Min_cycle;Max_cycle;Signal;HPM_P1;HPM_P2
2021/01/10 00:00:43;;;;;;;27.30;18.50;;;1.50;98.30;;;;;;5067849;23;20268;-78
2021/01/10 00:02:47;;;;;;;25.85;17.10;;;1.50;98.30;;;;;;5075619;23;20206;-78
2021/01/10 00:04:50;;;;;;;32.35;19.30;;;1.40;98.30;;;;;;5075018;23;20212;-79
2021/01/10 00:06:52;;;;;;;31.05;21.05;;;1.40;98.30;;;;;;5075214;23;20204;-78
2021/01/10 00:08:54;;;;;;;29.77;17.80;;;1.30;98.30;;;;;;5074958;23;20244;-79
2021/01/10 00:10:56;;;;;;;30.88;19.63;;;1.40;98.30;;;;;;5074669;23;20243;-78
2021/01/10 00:12:58;;;;;;;29.10;18.80;;;1.40;98.30;;;;;;5074795;23;21072;-78
2021/01/10 00:15:01;;;;;;;30.23;19.15;;;1.40;98.30;;;;;;5075036;23;20667;-79
2021/01/10 00:17:03;;;;;;;26.40;17.73;;;1.50;98.30;;;;;;5075430;23;20291;-79
2021/01/10 00:19:05;;;;;;;27.95;17.15;;;1.70;98.30;;;;;;5076571;23;20691;-79
2021/01/10 00:21:08;;;;;;;29.25;18.20;;;1.60;98.30;;;;;;5068060;23;20255;-79
2021/01/10 00:23:10;;;;;;;27.70;17.73;;;1.50;98.30;;;;;;5076658;23;20211;-79
2021/01/10 00:25:13;;;;;;;28.00;17.95;;;1.40;98.30;;;;;;5075755;23;20207;-79
2021/01/10 00:27:17;;;;;;;28.05;19.00;;;1.30;98.30;;;;;;5067503;23;20205;-79
2021/01/10 00:29:19;;;;;;;30.17;18.30;;;1.30;98.30;;;;;;5075565;23;20231;-79
2021/01/10 00:31:27;;;;;;;29.05;19.35;;;1.30;98.30;;;;;;5065258;23;20204;-79
2021/01/10 00:33:29;;;;;;;28.38;18.67;;;1.20;98.30;;;;;;5074166;23;20311;-79
2021/01/10 00:35:33;;;;;;;28.55;18.23;;;1.20;98.30;;;;;;5064937;23;20212;-78
2021/01/10 00:37:37;;;;;;;27.45;18.30;;;1.20;98.30;;;;;;5066521;23;20259;-79
2021/01/10 00:39:39;;;;;;;32.00;19.42;;;1.20;98.30;;;;;;5064861;23;20624;-78
2021/01/10 00:41:42;;;;;;;33.92;21.20;;;1.20;98.30;;;;;;5072761;23;20291;-78
2021/01/10 00:43:43;;;;;;;30.55;20.17;;;1.20;98.30;;;;;;5074268;23;20247;-79
2021/01/10 00:45:45;;;;;;;31.80;21.33;;;1.20;98.30;;;;;;5065735;23;20235;-79
2021/01/10 00:47:48;;;;;;;31.70;20.75;;;1.30;98.30;;;;;;5073156;23;20210;-79
2021/01/10 00:49:51;;;;;;;32.03;20.10;;;1.30;98.30;;;;;;5073865;23;20204;-79
2021/01/10 00:51:53;;;;;;;35.35;22.15;;;1.40;98.30;;;;;;5073889;23;20204;-78
2021/01/10 00:53:56;;;;;;;38.67;21.85;;;1.50;98.30;;;;;;5073224;23;20215;-78
2021/01/10 00:55:58;;;;;;;34.45;18.75;;;1.40;98.30;;;;;;5066007;23;20247;-79
2021/01/10 00:58:00;;;;;;;35.63;21.23;;;1.40;98.30;;;;;;5065527;23;20295;-79
2021/01/10 01:00:03;;;;;;;35.83;21.77;;;1.40;98.30;;;;;;5074420;23;20208;-79
2021/01/10 01:02:05;;;;;;;31.90;19.27;;;1.30;98.30;;;;;;5065545;23;20251;-79
2021/01/10 01:04:07;;;;;;;28.67;17.15;;;1.40;98.30;;;;;;5065604;23;20963;-78
2021/01/10 01:06:11;;;;;;;25.88;16.52;;;1.20;98.30;;;;;;5073973;23;20776;-78
2021/01/10 01:08:13;;;;;;;29.55;18.80;;;1.10;98.30;;;;;;5073325;23;20232;-78
2021/01/10 01:10:16;;;;;;;31.70;18.95;;;1.00;98.30;;;;;;5073568;23;20211;-78
2021/01/10 01:12:18;;;;;;;31.73;18.80;;;0.90;98.30;;;;;;5073320;23;21034;-78
2021/01/10 01:14:20;;;;;;;28.08;18.15;;;0.90;98.30;;;;;;5064595;23;20664;-79
2021/01/10 01:16:22;;;;;;;32.85;20.85;;;0.80;98.30;;;;;;5065713;23;20212;-79
2021/01/10 01:18:25;;;;;;;30.98;18.23;;;0.80;98.30;;;;;;5073118;23;20208;-78
2021/01/10 01:20:29;;;;;;;30.90;20.02;;;0.80;98.30;;;;;;5065149;23;20212;-78
2021/01/10 01:22:31;;;;;;;33.55;20.15;;;0.80;98.30;;;;;;5073515;23;20227;-78
2021/01/10 01:24:33;;;;;;;34.22;19.67;;;0.80;98.30;;;;;;5065198;23;20290;-79
2021/01/10 01:26:36;;;;;;;36.05;21.05;;;0.80;98.30;;;;;;5076827;23;20204;-79
2021/01/10 01:28:38;;;;;;;33.22;19.75;;;0.70;98.30;;;;;;5074461;23;20287;-79
2021/01/10 01:30:40;;;;;;;31.73;19.00;;;0.80;98.30;;;;;;5073817;23;20204;-79
2021/01/10 01:32:42;;;;;;;32.95;19.92;;;0.70;98.30;;;;;;5074327;23;20222;-79
2021/01/10 01:34:44;;;;;;;33.67;21.80;;;0.70;98.30;;;;;;5066860;23;20208;-79
2021/01/10 01:36:46;;;;;;;31.55;20.80;;;0.70;98.30;;;;;;5067213;23;20212;-79
2021/01/10 01:38:48;;;;;;;32.55;19.58;;;0.60;98.30;;;;;;5074952;23;20217;-80
2021/01/10 01:40:58;;;;;;;32.83;19.50;;;0.50;98.30;;;;;;5076292;23;20264;-80
2021/01/10 01:43:01;;;;;;;31.15;19.67;;;0.40;98.30;;;;;;5076072;23;20208;-80
2021/01/10 01:45:05;;;;;;;31.85;20.13;;;0.50;98.30;;;;;;5075777;23;20300;-81
2021/01/10 01:47:07;;;;;;;29.50;18.38;;;0.40;98.30;;;;;;5068209;23;20676;-80
2021/01/10 01:49:10;;;;;;;28.63;18.95;;;0.40;98.30;;;;;;5067930;23;20248;-80
2021/01/10 01:51:13;;;;;;;31.02;19.65;;;0.40;98.30;;;;;;5076538;23;20663;-80
2021/01/10 01:53:15;;;;;;;31.65;21.60;;;0.50;98.30;;;;;;5068721;23;20208;-80
2021/01/10 01:55:17;;;;;;;35.58;21.20;;;0.40;98.30;;;;;;5068367;23;20207;-80
2021/01/10 01:57:19;;;;;;;29.48;19.80;;;0.40;98.30;;;;;;5068100;23;20640;-81
2021/01/10 01:59:22;;;;;;;31.38;21.30;;;0.50;98.30;;;;;;5076089;23;20511;-80
2021/01/10 02:01:25;;;;;;;35.58;22.27;;;0.50;98.30;;;;;;5068566;23;20208;-80
2021/01/10 02:03:33;;;;;;;31.30;20.90;;;0.50;98.30;;;;;;5076994;23;20230;-80
2021/01/10 02:05:38;;;;;;;31.02;20.42;;;0.60;98.30;;;;;;5076848;23;20210;-80
2021/01/10 02:07:51;;;;;;;36.45;21.73;;;0.50;98.30;;;;;;5076785;23;20240;-79
2021/01/10 02:09:56;;;;;;;32.50;21.98;;;0.60;98.30;;;;;;5079672;23;20210;-81
2021/01/10 02:12:03;;;;;;;36.05;21.42;;;0.60;98.30;;;;;;5079146;23;20204;-80
2021/01/10 02:14:08;;;;;;;35.15;21.80;;;0.60;98.30;;;;;;5071513;23;20211;-80
2021/01/10 02:16:13;;;;;;;33.67;19.83;;;0.70;98.30;;;;;;5071110;23;20223;-80
2021/01/10 02:18:18;;;;;;;36.67;23.50;;;0.70;98.30;;;;;;5077826;23;20550;-80
2021/01/10 02:20:27;;;;;;;36.22;21.40;;;0.70;98.30;;;;;;5070522;23;20541;-80
2021/01/10 02:22:33;;;;;;;37.67;23.08;;;0.60;98.30;;;;;;5071443;23;20239;-80
2021/01/10 02:24:36;;;;;;;40.10;23.58;;;0.60;98.30;;;;;;5071479;23;20220;-81
2021/01/10 02:26:39;;;;;;;43.42;25.02;;;0.60;98.30;;;;;;5069978;23;20208;-80
2021/01/10 02:28:46;;;;;;;36.15;24.05;;;0.60;98.30;;;;;;5069305;23;20215;-81
2021/01/10 02:30:52;;;;;;;41.42;25.15;;;0.60;98.30;;;;;;5069977;23;20286;-80
2021/01/10 02:33:01;;;;;;;37.10;23.00;;;0.60;98.30;;;;;;5069749;23;20247;-80
2021/01/10 02:35:08;;;;;;;45.15;26.05;;;0.70;98.30;;;;;;5070294;23;20224;-80
2021/01/10 02:37:21;;;;;;;37.92;24.70;;;0.70;98.30;;;;;;5077860;23;20214;-80
2021/01/10 02:39:29;;;;;;;41.83;26.65;;;0.70;98.30;;;;;;5069227;23;20286;-80
2021/01/10 02:41:42;;;;;;;38.85;24.50;;;0.60;98.30;;;;;;5069376;23;20287;-80
2021/01/10 02:43:55;;;;;;;36.40;22.90;;;0.50;98.30;;;;;;5079400;23;20207;-80
2021/01/10 02:46:02;;;;;;;35.50;21.45;;;0.50;98.30;;;;;;5078378;23;20204;-80
2021/01/10 02:48:05;;;;;;;38.58;24.45;;;0.50;98.30;;;;;;5068310;23;20590;-80
2021/01/10 02:50:08;;;;;;;37.42;22.80;;;0.40;98.30;;;;;;5071315;23;20244;-81
2021/01/10 02:52:10;;;;;;;35.58;22.60;;;0.40;98.30;;;;;;5071129;23;20246;-80
2021/01/10 02:54:16;;;;;;;36.08;22.60;;;0.50;98.30;;;;;;5077917;23;20200;-81
2021/01/10 02:56:21;;;;;;;43.25;25.60;;;0.50;98.30;;;;;;5078077;23;20231;-80
2021/01/10 02:58:27;;;;;;;34.88;22.08;;;0.60;98.30;;;;;;5077573;23;20231;-80
2021/01/10 03:00:30;;;;;;;37.28;23.48;;;0.50;98.30;;;;;;5069671;23;20321;-80
2021/01/10 03:02:33;;;;;;;38.13;22.38;;;0.60;98.30;;;;;;5078471;23;20286;-80
2021/01/10 03:04:37;;;;;;;37.58;22.58;;;0.60;98.30;;;;;;5077034;23;20223;-80
2021/01/10 03:06:40;;;;;;;39.47;24.15;;;0.60;98.30;;;;;;5077774;23;20204;-80
2021/01/10 03:08:42;;;;;;;34.75;22.20;;;0.60;98.30;;;;;;5068838;23;20747;-80
2021/01/10 03:10:45;;;;;;;36.40;23.42;;;0.60;98.30;;;;;;5077627;23;20517;-80
2021/01/10 03:12:48;;;;;;;35.30;21.83;;;0.40;98.30;;;;;;5077761;23;20593;-80
2021/01/10 03:14:52;;;;;;;37.97;22.30;;;0.60;98.30;;;;;;5076679;23;20209;-80
2021/01/10 03:16:55;;;;;;;32.42;20.67;;;0.60;98.30;;;;;;5076675;23;20215;-80
2021/01/10 03:18:57;;;;;;;39.33;22.58;;;0.60;98.30;;;;;;5079094;23;20208;-80
2021/01/10 03:20:59;;;;;;;33.00;20.80;;;0.50;98.30;;;;;;5072170;23;20233;-80
2021/01/10 03:23:01;;;;;;;35.35;22.02;;;0.50;98.30;;;;;;5077607;23;20505;-80
2021/01/10 03:25:05;;;;;;;34.03;21.58;;;0.50;98.30;;;;;;5068653;23;20652;-79
2021/01/10 03:27:07;;;;;;;31.65;21.00;;;0.60;98.30;;;;;;5076819;23;20273;-80
2021/01/10 03:29:09;;;;;;;33.08;20.98;;;0.60;98.30;;;;;;5068269;23;20215;-80
2021/01/10 03:31:14;;;;;;;32.72;21.63;;;0.60;98.30;;;;;;5069625;23;20214;-80
2021/01/10 03:33:16;;;;;;;33.97;20.05;;;0.60;98.30;;;;;;5077610;23;20235;-80
2021/01/10 03:35:18;;;;;;;32.67;21.40;;;0.70;98.30;;;;;;5079589;23;20211;-80
2021/01/10 03:37:21;;;;;;;32.83;21.02;;;0.60;98.30;;;;;;5079263;23;20293;-80
2021/01/10 03:39:23;;;;;;;36.58;22.15;;;0.60;98.30;;;;;;5071018;23;20282;-80
2021/01/10 03:41:27;;;;;;;36.00;23.02;;;0.60;98.30;;;;;;5071867;23;20900;-80
2021/01/10 03:43:29;;;;;;;34.67;22.58;;;0.50;98.30;;;;;;5079631;23;20327;-80
2021/01/10 03:45:31;;;;;;;34.33;20.45;;;0.60;98.30;;;;;;5078641;23;20212;-80
2021/01/10 03:47:34;;;;;;;36.05;22.42;;;0.60;98.30;;;;;;5070004;23;20204;-80
2021/01/10 03:49:37;;;;;;;33.10;22.63;;;0.70;98.30;;;;;;5070953;23;20262;-80
2021/01/10 03:51:39;;;;;;;39.95;26.05;;;0.60;98.30;;;;;;5070176;23;20299;-80
2021/01/10 03:53:41;;;;;;;34.70;22.02;;;0.70;98.30;;;;;;5069743;23;20212;-80
2021/01/10 03:55:43;;;;;;;38.08;22.23;;;0.70;98.30;;;;;;5076868;23;20809;-80
2021/01/10 03:57:45;;;;;;;36.03;22.75;;;0.80;98.30;;;;;;5075989;23;20208;-80
2021/01/10 03:59:47;;;;;;;34.53;21.33;;;0.70;98.30;;;;;;5078375;23;20204;-81
2021/01/10 04:01:49;;;;;;;35.50;23.48;;;0.80;98.30;;;;;;5069893;23;20235;-80
2021/01/10 04:03:52;;;;;;;32.67;22.48;;;0.80;98.30;;;;;;5071182;23;20240;-80
2021/01/10 04:05:54;;;;;;;29.00;19.77;;;0.80;98.30;;;;;;5072478;23;20296;-80
2021/01/10 04:07:56;;;;;;;32.65;21.75;;;0.80;98.30;;;;;;5071976;23;20287;-81
2021/01/10 04:09:58;;;;;;;32.80;20.98;;;0.90;98.30;;;;;;5073894;23;20552;-81
2021/01/10 04:12:06;;;;;;;30.65;20.15;;;0.90;98.30;;;;;;5079627;23;20200;-80
2021/01/10 04:14:08;;;;;;;31.90;20.08;;;0.90;98.30;;;;;;5080078;23;20231;-81
2021/01/10 04:16:12;;;;;;;32.63;19.48;;;0.80;98.30;;;;;;5077391;23;20209;-80
2021/01/10 04:18:14;;;;;;;31.88;19.85;;;0.80;98.30;;;;;;5077734;23;20216;-80
2021/01/10 04:20:17;;;;;;;32.95;22.20;;;0.90;98.30;;;;;;5083753;23;20204;-80
2021/01/10 04:22:19;;;;;;;34.30;20.90;;;0.90;98.30;;;;;;5070053;23;20208;-80
2021/01/10 04:24:21;;;;;;;34.00;20.20;;;0.90;98.30;;;;;;5078434;23;20211;-80
2021/01/10 04:26:24;;;;;;;31.77;20.08;;;0.90;98.30;;;;;;5080214;23;20204;-80
2021/01/10 04:28:25;;;;;;;32.25;19.38;;;1.00;98.30;;;;;;5080537;23;20214;-80
2021/01/10 04:30:28;;;;;;;29.98;19.35;;;0.90;98.30;;;;;;5080224;23;20212;-82
2021/01/10 04:32:30;;;;;;;34.50;19.92;;;0.90;98.30;;;;;;5066735;23;20208;-81
2021/01/10 04:34:32;;;;;;;32.80;21.13;;;0.90;98.30;;;;;;5077248;23;20200;-82
2021/01/10 04:36:37;;;;;;;32.65;19.80;;;1.00;98.30;;;;;;5068459;23;20243;-82
2021/01/10 04:38:39;;;;;;;31.85;20.45;;;1.10;98.30;;;;;;5075992;23;20715;-82
2021/01/10 04:40:44;;;;;;;32.58;21.90;;;1.10;98.30;;;;;;5076720;23;20263;-82
2021/01/10 04:42:47;;;;;;;36.45;22.95;;;1.10;98.30;;;;;;5075886;23;20204;-82
2021/01/10 04:44:49;;;;;;;34.63;21.15;;;0.90;98.30;;;;;;5068241;23;20219;-82
2021/01/10 04:46:54;;;;;;;33.97;21.30;;;0.90;98.30;;;;;;5068218;23;20228;-81
2021/01/10 04:49:02;;;;;;;32.17;21.45;;;0.70;98.30;;;;;;5068328;23;20477;-82
2021/01/10 04:51:05;;;;;;;39.83;24.08;;;0.70;98.30;;;;;;5067704;23;20220;-82
2021/01/10 04:53:09;;;;;;;38.47;24.40;;;0.70;98.30;;;;;;5067951;23;20234;-82
2021/01/10 04:55:12;;;;;;;35.47;23.50;;;0.50;98.30;;;;;;5067903;23;20211;-81
2021/01/10 04:57:14;;;;;;;38.42;24.30;;;0.50;98.30;;;;;;5074958;23;20247;-82
2021/01/10 04:59:23;;;;;;;38.20;24.50;;;0.50;98.30;;;;;;5074273;23;20236;-81
2021/01/10 05:01:26;;;;;;;40.20;23.88;;;0.50;98.30;;;;;;5075069;23;20218;-81
2021/01/10 05:03:30;;;;;;;38.25;23.75;;;0.40;98.30;;;;;;5075523;23;20248;-81
2021/01/10 05:05:35;;;;;;;42.20;25.38;;;0.40;98.30;;;;;;5068284;23;20675;-82
2021/01/10 05:07:37;;;;;;;45.30;27.27;;;0.40;98.30;;;;;;5075761;23;20233;-81
2021/01/10 05:09:41;;;;;;;42.60;26.88;;;0.40;98.30;;;;;;5075831;23;20660;-81
2021/01/10 05:11:43;;;;;;;43.65;25.85;;;0.30;98.30;;;;;;5075627;23;21006;-82
2021/01/10 05:13:45;;;;;;;48.20;27.15;;;0.20;98.30;;;;;;5074949;23;20685;-82
2021/01/10 05:15:54;;;;;;;42.08;26.50;;;0.20;98.30;;;;;;5067397;23;20522;-82
2021/01/10 05:17:58;;;;;;;47.83;29.02;;;0.20;98.30;;;;;;5075190;23;20204;-81
2021/01/10 05:20:00;;;;;;;45.10;27.42;;;0.20;98.30;;;;;;5076240;23;20212;-82
2021/01/10 05:22:12;;;;;;;46.42;27.83;;;0.20;98.30;;;;;;5076023;23;20683;-82
2021/01/10 05:24:18;;;;;;;48.55;29.30;;;0.20;98.30;;;;;;5067792;23;20222;-82
2021/01/10 05:26:23;;;;;;;48.28;28.02;;;0.20;98.30;;;;;;5075748;23;20595;-82
2021/01/10 05:28:26;;;;;;;48.05;28.60;;;0.20;98.30;;;;;;5075475;23;20241;-81
2021/01/10 05:30:31;;;;;;;45.10;28.85;;;0.20;98.30;;;;;;5067595;23;20238;-81
2021/01/10 05:32:33;;;;;;;47.78;28.10;;;0.20;98.30;;;;;;5076315;23;20285;-82
2021/01/10 05:34:35;;;;;;;50.72;28.75;;;0.20;98.30;;;;;;5075473;23;20784;-82
2021/01/10 05:36:39;;;;;;;48.80;29.70;;;0.20;98.30;;;;;;5068225;23;20737;-82
2021/01/10 05:38:41;;;;;;;48.33;28.85;;;0.10;98.30;;;;;;5068012;23;20222;-81
2021/01/10 05:40:43;;;;;;;53.45;30.65;;;0.20;98.30;;;;;;5079788;23;20204;-81
2021/01/10 05:42:46;;;;;;;54.40;28.60;;;0.20;98.30;;;;;;5071801;23;20249;-82
2021/01/10 05:44:50;;;;;;;51.65;30.88;;;0.20;98.30;;;;;;5077768;23;20581;-82
2021/01/10 05:47:03;;;;;;;57.20;32.75;;;0.30;98.30;;;;;;5076931;23;20259;-82
2021/01/10 05:49:17;;;;;;;54.47;32.97;;;0.40;98.30;;;;;;5077460;23;20211;-80
2021/01/10 05:51:20;;;;;;;45.97;28.40;;;0.40;98.30;;;;;;5072191;23;20612;-80
2021/01/10 05:53:24;;;;;;;44.55;26.55;;;0.40;98.30;;;;;;5075219;23;20226;-79
2021/01/10 05:55:26;;;;;;;47.90;28.90;;;0.40;98.30;;;;;;5075105;23;20317;-80
2021/01/10 05:57:30;;;;;;;48.58;29.45;;;0.40;98.30;;;;;;5066129;23;20223;-80
2021/01/10 05:59:38;;;;;;;50.58;28.25;;;0.40;98.30;;;;;;5074575;23;20207;-80
2021/01/10 06:01:40;;;;;;;47.78;28.33;;;0.40;98.30;;;;;;5074372;23;20211;-81
2021/01/10 06:03:49;;;;;;;48.58;28.27;;;0.50;98.30;;;;;;5075720;23;20232;-80
2021/01/10 06:05:59;;;;;;;47.35;25.80;;;0.50;98.30;;;;;;5074920;23;20210;-81
2021/01/10 06:08:01;;;;;;;50.42;28.45;;;0.50;98.30;;;;;;5074567;23;20203;-80
2021/01/10 06:10:04;;;;;;;52.88;29.67;;;0.60;98.30;;;;;;5066847;23;20601;-80
2021/01/10 06:12:20;;;;;;;46.47;29.13;;;0.50;98.30;;;;;;5075079;23;20676;-80
2021/01/10 06:14:23;;;;;;;49.45;28.83;;;0.50;98.30;;;;;;5067268;23;20208;-80
2021/01/10 06:16:28;;;;;;;50.15;27.42;;;0.60;98.30;;;;;;5075021;23;20208;-80
2021/01/10 06:18:30;;;;;;;47.00;26.45;;;0.50;98.30;;;;;;5075164;23;20208;-80
2021/01/10 06:20:34;;;;;;;46.55;27.85;;;0.50;98.30;;;;;;5067788;23;20204;-80
2021/01/10 06:22:44;;;;;;;47.47;27.40;;;0.60;98.30;;;;;;5075720;23;20208;-80
2021/01/10 06:24:47;;;;;;;49.58;26.80;;;0.60;98.30;;;;;;5075801;23;20204;-80
2021/01/10 06:26:58;;;;;;;50.25;26.45;;;0.40;98.30;;;;;;5075698;23;20203;-80
2021/01/10 06:29:01;;;;;;;49.78;28.20;;;0.50;98.30;;;;;;5075561;23;20215;-80
2021/01/10 06:31:04;;;;;;;48.35;29.10;;;0.50;98.30;;;;;;5067057;23;20212;-80
2021/01/10 06:33:18;;;;;;;51.30;27.95;;;0.50;98.30;;;;;;5076008;23;20213;-80
2021/01/10 06:35:22;;;;;;;46.75;27.23;;;0.50;98.30;;;;;;5076261;23;20216;-83
2021/01/10 06:37:28;;;;;;;53.85;30.75;;;0.50;98.30;;;;;;5075902;23;20218;-80
2021/01/10 06:39:38;;;;;;;51.40;30.38;;;0.50;98.30;;;;;;5075692;23;20597;-80
2021/01/10 06:42:08;;;;;;;48.30;27.85;;;0.50;98.30;;;;;;5076452;23;20263;-82
2021/01/10 06:44:10;;;;;;;43.67;27.65;;;0.60;98.30;;;;;;5075719;23;20211;-82
2021/01/10 06:46:13;;;;;;;49.03;26.95;;;0.60;98.30;;;;;;5067529;23;20574;-83
2021/01/10 06:48:24;;;;;;;46.65;26.85;;;0.60;98.30;;;;;;5074941;23;20215;-82
2021/01/10 06:50:27;;;;;;;47.40;28.15;;;0.60;98.30;;;;;;5067532;23;21966;-83
2021/01/10 06:52:31;;;;;;;49.05;28.20;;;0.50;98.30;;;;;;5074984;23;20215;-82
2021/01/10 06:54:41;;;;;;;51.03;29.05;;;0.60;98.30;;;;;;5066758;23;20204;-82
2021/01/10 06:56:48;;;;;;;43.33;27.58;;;0.60;98.30;;;;;;5075589;23;20726;-82
2021/01/10 06:59:05;;;;;;;47.80;26.27;;;0.60;98.30;;;;;;5075364;23;20238;-82
2021/01/10 07:01:07;;;;;;;49.15;28.02;;;0.60;98.30;;;;;;5075304;23;20210;-82
2021/01/10 07:03:12;;;;;;;42.33;25.00;;;0.70;98.30;;;;;;5075714;23;20235;-83
2021/01/10 07:05:15;;;;;;;42.80;26.90;;;0.70;98.30;;;;;;5075335;23;20234;-83
2021/01/10 07:07:36;;;;;;;46.33;26.00;;;0.70;98.30;;;;;;5075194;23;20702;-83
2021/01/10 07:09:54;;;;;;;45.20;26.63;;;0.70;98.30;;;;;;5067236;23;20219;-82
2021/01/10 07:11:56;;;;;;;47.28;27.52;;;0.70;98.30;;;;;;5075122;23;20943;-80
2021/01/10 07:14:28;;;;;;;42.28;26.40;;;0.60;98.30;;;;;;5075384;23;20211;-82
2021/01/10 07:16:30;;;;;;;48.78;28.92;;;0.60;98.30;;;;;;5075079;23;20204;-82
2021/01/10 07:18:48;;;;;;;47.05;27.27;;;0.60;98.30;;;;;;5075247;23;20266;-82
2021/01/10 07:20:52;;;;;;;48.70;27.95;;;0.70;98.30;;;;;;5067388;23;20264;-82
2021/01/10 07:23:34;;;;;;;46.97;26.48;;;0.60;98.30;;;;;;5075112;23;20204;-82
2021/01/10 07:25:37;;;;;;;47.03;28.92;;;0.60;98.30;;;;;;5067472;23;20808;-82
2021/01/10 07:27:39;;;;;;;46.65;24.67;;;0.60;98.30;;;;;;5075088;23;20521;-82
2021/01/10 07:29:42;;;;;;;50.40;27.88;;;0.60;98.30;;;;;;5066777;23;20701;-82
2021/01/10 07:31:57;;;;;;;46.80;25.73;;;0.70;98.30;;;;;;5066517;23;20256;-82
2021/01/10 07:34:10;;;;;;;46.55;25.23;;;0.70;98.30;;;;;;5074932;23;20211;-82
2021/01/10 07:36:15;;;;;;;46.45;25.40;;;0.70;98.30;;;;;;5074291;23;20204;-83
2021/01/10 07:38:18;;;;;;;45.42;25.33;;;0.70;98.30;;;;;;5075628;23;20208;-83
2021/01/10 07:40:24;;;;;;;54.65;29.20;;;0.80;98.30;;;;;;5076083;23;20282;-82
2021/01/10 07:42:28;;;;;;;57.42;31.27;;;0.90;98.30;;;;;;5076336;23;20234;-82
2021/01/10 07:44:47;;;;;;;53.65;30.77;;;0.90;98.30;;;;;;5068453;23;20208;-82
2021/01/10 07:46:52;;;;;;;42.60;23.92;;;0.90;98.30;;;;;;5067738;23;20294;-82
2021/01/10 07:48:54;;;;;;;44.15;25.02;;;1.00;98.30;;;;;;5068261;23;20511;-82
2021/01/10 07:51:15;;;;;;;42.00;24.30;;;1.00;98.30;;;;;;5076431;23;20243;-82
2021/01/10 07:53:20;;;;;;;42.03;23.75;;;0.90;98.30;;;;;;5079451;23;20208;-82
2021/01/10 07:55:26;;;;;;;39.92;23.95;;;0.90;98.30;;;;;;5072294;23;20216;-82
2021/01/10 07:57:33;;;;;;;43.28;24.48;;;1.00;98.30;;;;;;5068096;23;20299;-82
2021/01/10 07:59:36;;;;;;;62.53;33.97;;;1.00;98.30;;;;;;5067985;23;20208;-82
2021/01/10 08:01:47;;;;;;;41.42;22.17;;;1.00;98.30;;;;;;5076359;23;20255;-82
2021/01/10 08:03:51;;;;;;;42.70;24.15;;;1.10;98.30;;;;;;5077009;23;20252;-82
2021/01/10 08:06:03;;;;;;;39.15;24.38;;;1.00;98.30;;;;;;5076821;23;20204;-82
2021/01/10 08:08:08;;;;;;;39.65;22.58;;;1.00;98.30;;;;;;5076645;23;20204;-82
2021/01/10 08:10:22;;;;;;;41.60;20.75;;;1.00;98.30;;;;;;5079096;23;20208;-81
2021/01/10 08:12:33;;;;;;;37.40;22.05;;;1.00;98.30;;;;;;5081296;23;20242;-81
2021/01/10 08:14:36;;;;;;;39.53;21.50;;;1.10;98.30;;;;;;5071185;23;20204;-81
2021/01/10 08:16:47;;;;;;;33.60;18.67;;;1.00;98.30;;;;;;5069619;23;20264;-82
2021/01/10 08:18:50;;;;;;;36.40;21.90;;;1.10;98.30;;;;;;5076321;23;20208;-81
2021/01/10 08:20:53;;;;;;;39.13;21.95;;;1.00;98.30;;;;;;5076779;23;20210;-82
2021/01/10 08:22:55;;;;;;;34.17;19.88;;;1.10;98.30;;;;;;5068389;23;20587;-83
2021/01/10 08:24:57;;;;;;;34.90;20.13;;;1.10;98.30;;;;;;5070005;23;20235;-82
2021/01/10 08:27:03;;;;;;;35.67;21.30;;;1.10;98.30;;;;;;5077238;23;20915;-83
2021/01/10 08:29:06;;;;;;;37.60;20.42;;;1.20;98.30;;;;;;5076023;23;20207;-84
2021/01/10 08:31:10;;;;;;;37.40;20.45;;;1.20;98.30;;;;;;5068427;23;20220;-82
2021/01/10 08:33:19;;;;;;;33.45;19.45;;;1.20;98.30;;;;;;5069667;23;20212;-82
2021/01/10 08:35:24;;;;;;;34.05;19.48;;;1.20;98.30;;;;;;5069644;23;20551;-83
2021/01/10 08:37:26;;;;;;;33.67;20.23;;;1.30;98.30;;;;;;5069821;23;20212;-83
2021/01/10 08:39:30;;;;;;;38.55;20.40;;;1.30;98.30;;;;;;5069815;23;20218;-88
2021/01/10 08:41:42;;;;;;;35.85;19.90;;;1.30;98.30;;;;;;5079624;23;20256;-83
2021/01/10 08:43:55;;;;;;;35.20;20.63;;;1.30;98.30;;;;;;5078710;23;20208;-82
2021/01/10 08:46:12;;;;;;;31.30;18.88;;;1.40;98.30;;;;;;5078087;23;20214;-82
2021/01/10 08:48:17;;;;;;;31.63;19.48;;;1.40;98.30;;;;;;5078691;23;20686;-82
2021/01/10 08:50:40;;;;;;;48.22;19.95;;;1.40;98.30;;;;;;5078785;23;20239;-83
2021/01/10 08:52:58;;;;;;;31.13;17.80;;;1.40;98.30;;;;;;5079200;23;20208;-82
2021/01/10 08:57:56;;;;;;;33.75;18.60;;;1.50;98.30;;;;;;5049949;23;20526;-82
2021/01/10 08:59:59;;;;;;;29.80;18.65;;;1.60;98.30;;;;;;5079743;23;20279;-82
2021/01/10 09:02:12;;;;;;;31.90;19.42;;;1.50;98.30;;;;;;5079771;23;20204;-82
2021/01/10 09:04:15;;;;;;;32.53;19.95;;;1.50;98.30;;;;;;5080014;23;20204;-83
2021/01/10 09:06:18;;;;;;;29.73;18.15;;;1.50;98.30;;;;;;5080532;23;20211;-82
2021/01/10 09:08:34;;;;;;;33.00;17.35;;;1.60;98.30;;;;;;5079793;23;20200;-82
2021/01/10 09:10:58;;;;;;;30.20;19.10;;;1.60;98.30;;;;;;5080601;23;20666;-82
2021/01/10 09:13:08;;;;;;;30.45;18.75;;;1.70;98.30;;;;;;5080637;23;20228;-83
2021/01/10 09:15:18;;;;;;;26.80;15.38;;;1.80;98.30;;;;;;5081532;23;20210;-83
2021/01/10 09:17:30;;;;;;;28.73;18.30;;;2.00;98.30;;;;;;5074869;23;20265;-83
2021/01/10 09:19:35;;;;;;;24.33;16.45;;;2.10;98.30;;;;;;5076032;23;20295;-83
2021/01/10 09:21:38;;;;;;;24.40;15.73;;;2.10;98.30;;;;;;5079454;23;20278;-82
2021/01/10 09:23:48;;;;;;;27.42;16.45;;;2.20;98.30;;;;;;5071475;23;20264;-83
2021/01/10 09:25:51;;;;;;;27.27;17.02;;;2.20;98.30;;;;;;5075461;23;20204;-82
2021/01/10 09:28:08;;;;;;;26.92;16.75;;;2.20;98.30;;;;;;5075209;23;20200;-82
2021/01/10 09:30:11;;;;;;;25.20;16.55;;;2.30;98.30;;;;;;5075676;23;20283;-82
2021/01/10 09:32:21;;;;;;;26.20;17.33;;;2.30;98.30;;;;;;5075188;23;20271;-82
2021/01/10 09:34:27;;;;;;;22.70;15.15;;;2.30;98.30;;;;;;5075898;23;20714;-82
2021/01/10 09:36:32;;;;;;;26.10;16.90;;;2.30;98.30;;;;;;5075980;23;20204;-82
2021/01/10 09:38:36;;;;;;;24.17;15.23;;;2.30;98.30;;;;;;5076159;23;20684;-83
2021/01/10 09:40:39;;;;;;;23.88;13.88;;;2.30;98.30;;;;;;5075748;23;20201;-82
2021/01/10 09:42:42;;;;;;;25.48;15.55;;;2.30;98.30;;;;;;5076021;23;20520;-82
2021/01/10 09:44:53;;;;;;;21.38;14.48;;;2.30;98.30;;;;;;5076338;23;20279;-82
2021/01/10 09:46:58;;;;;;;23.77;16.23;;;2.30;98.30;;;;;;5076749;23;20208;-82
2021/01/10 09:49:01;;;;;;;23.70;15.43;;;2.30;98.30;;;;;;5077034;23;20200;-83
2021/01/10 09:51:12;;;;;;;21.83;14.52;;;2.30;98.30;;;;;;5078408;23;20207;-82
2021/01/10 09:53:24;;;;;;;21.88;14.50;;;2.30;98.30;;;;;;5068863;23;20259;-82
2021/01/10 09:55:27;;;;;;;22.45;14.38;;;2.30;98.30;;;;;;5076278;23;20203;-82
2021/01/10 09:57:53;;;;;;;25.50;14.20;;;2.30;98.30;;;;;;5069797;23;20290;-83
2021/01/10 10:00:03;;;;;;;23.02;14.65;;;2.40;98.30;;;;;;5068383;23;20213;-82
2021/01/10 10:02:24;;;;;;;24.15;15.32;;;2.40;98.30;;;;;;5070243;23;20207;-83
2021/01/10 10:04:26;;;;;;;24.17;15.38;;;2.40;98.30;;;;;;5070486;23;20266;-83
2021/01/10 10:06:29;;;;;;;23.48;15.18;;;2.40;98.30;;;;;;5078541;23;20205;-83
2021/01/10 10:08:57;;;;;;;26.50;15.95;;;2.40;98.30;;;;;;5077977;23;20227;-82
2021/01/10 10:11:09;;;;;;;24.92;15.27;;;2.40;98.30;;;;;;5077938;23;20207;-83
2021/01/10 10:13:11;;;;;;;25.67;14.27;;;2.40;98.30;;;;;;5078390;23;20230;-83
2021/01/10 10:15:22;;;;;;;26.98;15.10;;;2.40;98.30;;;;;;5078265;23;20212;-83
2021/01/10 10:17:28;;;;;;;23.90;15.30;;;2.40;98.30;;;;;;5078803;23;20207;-83
2021/01/10 10:19:30;;;;;;;23.00;14.57;;;2.40;98.30;;;;;;5070884;23;20698;-82
2021/01/10 10:30:38;;;;;;;25.20;15.60;;;2.50;98.30;;;;;;5066321;23;20219;-82
2021/01/10 10:32:52;;;;;;;27.45;16.52;;;2.60;98.30;;;;;;5076518;23;20208;-82
2021/01/10 10:35:09;;;;;;;23.17;16.95;;;2.70;98.30;;;;;;5075150;23;20238;-82
2021/01/10 10:37:18;;;;;;;25.52;15.20;;;2.80;98.30;;;;;;5075143;23;20282;-82
2021/01/10 10:41:59;;;;;;;24.95;16.38;;;2.80;98.30;;;;;;5048999;23;20203;-82
2021/01/10 10:44:53;;;;;;;;;;;;;;;;;;;;;
2021/01/10 10:47:41;;;;;;;24.88;15.25;;;2.90;98.30;;;;;;5071900;23;20211;-82
2021/01/10 10:50:35;;;;;;;28.50;17.10;;;3.00;98.30;;;;;;5075164;23;20670;-82
2021/01/10 10:52:40;;;;;;;24.98;16.17;;;3.20;98.30;;;;;;5075487;23;20204;-82
2021/01/10 10:54:44;;;;;;;26.00;15.00;;;3.40;98.30;;;;;;5075068;23;20212;-82
2021/01/10 10:56:48;;;;;;;20.13;13.57;;;3.60;98.30;;;;;;5075552;23;20212;-82
2021/01/10 10:58:50;;;;;;;23.35;13.38;;;3.90;98.30;;;;;;5076078;23;20212;-82
2021/01/10 11:00:53;;;;;;;21.57;12.03;;;4.20;98.30;;;;;;5076272;23;20251;-82
2021/01/10 11:03:00;;;;;;;19.47;11.83;;;4.50;98.30;;;;;;5068108;23;20456;-82